createdAt,value
2018-11-20T00:00:23.131Z,68.73
2018-11-20T00:01:23.149Z,68.7
2018-11-20T00:02:23.166Z,68.73
2018-11-20T00:03:23.176Z,68.23
2018-11-20T00:04:23.478Z,68.13
2018-11-20T00:05:23.237Z,68.41
2018-11-20T00:06:23.235Z,68.35
2018-11-20T00:07:23.512Z,68.51
2018-11-20T00:08:23.266Z,68.35
2018-11-20T00:09:23.282Z,68.6
2018-11-20T00:10:23.565Z,68.7
2018-11-20T00:11:23.581Z,67.75
2018-11-20T00:12:23.331Z,68.23
2018-11-20T00:13:23.347Z,68.23
2018-11-20T00:14:23.366Z,68.13
2018-11-20T00:15:23.383Z,68.23
2018-11-20T00:16:23.402Z,68.13
2018-11-20T00:17:23.417Z,68.32
2018-11-20T00:18:23.438Z,68.32
2018-11-20T00:19:23.459Z,68.23
2018-11-20T00:20:23.475Z,68.13
2018-11-20T00:21:23.494Z,68.13
2018-11-20T00:22:23.504Z,67.65
2018-11-20T00:23:23.790Z,68.6
2018-11-20T00:24:23.543Z,68.51
2018-11-20T00:25:23.559Z,68.13
2018-11-20T00:26:23.842Z,68.7
2018-11-20T00:27:23.858Z,68.6
2018-11-20T00:28:23.880Z,68.23
2018-11-20T00:29:23.896Z,68.54
2018-11-20T00:30:23.916Z,68.41
2018-11-20T00:31:23.926Z,68.41
2018-11-20T00:32:23.945Z,68.83
2018-11-20T00:33:23.969Z,68.23
2018-11-20T00:34:23.717Z,68.41
2018-11-20T00:35:23.727Z,68.51
2018-11-20T00:36:23.745Z,68.79
2018-11-20T00:37:23.765Z,68.54
2018-11-20T00:38:24.048Z,67.85
2018-11-20T00:39:23.807Z,68.23
2018-11-20T00:40:24.085Z,67.79
2018-11-20T00:41:24.107Z,67.65
2018-11-20T00:42:23.905Z,68.16
2018-11-20T00:43:23.869Z,68.32
2018-11-20T00:44:23.886Z,68.35
2018-11-20T00:45:23.903Z,68.44
2018-11-20T00:46:23.923Z,67.75
2018-11-20T00:47:24.201Z,67.94
2018-11-20T00:48:23.958Z,68.23
2018-11-20T00:49:24.238Z,68.23
2018-11-20T00:50:24.255Z,67.65
2018-11-20T00:51:24.274Z,67.75
2018-11-20T00:52:24.023Z,68.23
2018-11-20T00:53:24.315Z,68.23
2018-11-20T00:54:24.069Z,68.6
2018-11-20T00:55:24.342Z,68.04
2018-11-20T00:56:24.337Z,68.51
2018-11-20T00:57:24.400Z,68.23
2018-11-20T00:58:24.132Z,68.41
2018-11-20T00:59:24.143Z,68.23
2018-11-20T01:00:24.159Z,68.41
2018-11-20T01:01:24.178Z,68.23
2018-11-20T01:02:24.194Z,68.32
2018-11-20T01:03:24.479Z,68.51
2018-11-20T01:04:24.497Z,68.13
2018-11-20T01:05:24.552Z,68.54
2018-11-20T01:06:24.269Z,68.41
2018-11-20T01:07:24.566Z,68.6
2018-11-20T01:08:24.306Z,68.32
2018-11-20T01:09:24.327Z,68.51
2018-11-20T01:10:24.599Z,68.51
2018-11-20T01:11:24.358Z,68.6
2018-11-20T01:12:24.635Z,68.23
2018-11-20T01:13:24.388Z,68.54
2018-11-20T01:14:24.402Z,68.6
2018-11-20T01:15:24.419Z,68.64
2018-11-20T01:16:24.704Z,68.32
2018-11-20T01:17:24.716Z,68.23
2018-11-20T01:18:24.480Z,68.23
2018-11-20T01:19:24.754Z,68.26
2018-11-20T01:20:24.772Z,68.7
2018-11-20T01:21:24.520Z,68.83
2018-11-20T01:22:24.537Z,68.26
2018-11-20T01:23:24.562Z,68.16
2018-11-20T01:24:24.571Z,68.73
2018-11-20T01:25:24.595Z,68.73
2018-11-20T01:26:24.611Z,68.35
2018-11-20T01:27:24.627Z,68.44
2018-11-20T01:28:24.910Z,68.26
2018-11-20T01:29:24.927Z,68.26
2018-11-20T01:30:24.677Z,68.16
2018-11-20T01:31:24.697Z,68.35
2018-11-20T01:32:24.711Z,68.26
2018-11-20T01:33:24.729Z,68.35
2018-11-20T01:34:24.744Z,68.35
2018-11-20T01:35:25.033Z,68.26
2018-11-20T01:36:24.781Z,68.35
2018-11-20T01:37:25.064Z,67.59
2018-11-20T01:38:25.089Z,68.26
2018-11-20T01:39:24.838Z,68.07
2018-11-20T01:40:24.855Z,68.26
2018-11-20T01:41:24.956Z,68.26
2018-11-20T01:42:25.148Z,68.07
2018-11-20T01:43:25.169Z,68.44
2018-11-20T01:44:25.184Z,67.97
2018-11-20T01:45:25.216Z,68.44
2018-11-20T01:46:25.221Z,67.79
2018-11-20T01:47:24.970Z,68.07
2018-11-20T01:48:25.261Z,68.07
2018-11-20T01:49:25.004Z,67.97
2018-11-20T01:50:25.024Z,67.88
2018-11-20T01:51:25.134Z,67.79
2018-11-20T01:52:25.055Z,68.16
2018-11-20T01:53:25.346Z,68.07
2018-11-20T01:54:25.352Z,67.88
2018-11-20T01:55:25.111Z,68.26
2018-11-20T01:56:25.125Z,67.97
2018-11-20T01:57:25.149Z,67.97
2018-11-20T01:58:25.159Z,67.79
2018-11-20T01:59:25.189Z,67.79
2018-11-20T02:00:25.463Z,67.88
2018-11-20T02:01:25.478Z,68.07
2018-11-20T02:02:25.508Z,68.07
2018-11-20T02:03:25.246Z,68.35
2018-11-20T02:04:25.265Z,68.35
2018-11-20T02:05:25.283Z,68.26
2018-11-20T02:06:25.297Z,68.13
2018-11-20T02:07:25.583Z,68.35
2018-11-20T02:08:25.622Z,68.26
2018-11-20T02:09:25.348Z,68.35
2018-11-20T02:10:25.643Z,68.13
2018-11-20T02:11:25.392Z,68.07
2018-11-20T02:12:25.669Z,68.07
2018-11-20T02:13:25.418Z,68.26
2018-11-20T02:14:25.698Z,68.35
2018-11-20T02:15:25.450Z,68.07
2018-11-20T02:16:25.743Z,68.26
2018-11-20T02:17:25.486Z,68.64
2018-11-20T02:18:25.512Z,68.44
2018-11-20T02:19:25.792Z,68.26
2018-11-20T02:20:25.802Z,68.16
2018-11-20T02:21:25.834Z,68.54
2018-11-20T02:22:25.572Z,68.83
2018-11-20T02:23:25.600Z,68.54
2018-11-20T02:24:25.873Z,68.26
2018-11-20T02:25:25.899Z,68.44
2018-11-20T02:26:25.639Z,68.35
2018-11-20T02:27:25.935Z,68.26
2018-11-20T02:28:25.683Z,68.35
2018-11-20T02:29:25.965Z,68.07
2018-11-20T02:30:25.991Z,67.88
2018-11-20T02:31:25.724Z,68.07
2018-11-20T02:32:25.744Z,68.26
2018-11-20T02:33:26.026Z,67.97
2018-11-20T02:34:26.046Z,68.16
2018-11-20T02:35:26.060Z,68.54
2018-11-20T02:36:25.811Z,68.16
2018-11-20T02:37:25.836Z,68.35
2018-11-20T02:38:25.856Z,68.35
2018-11-20T02:39:26.141Z,68.16
2018-11-20T02:40:26.163Z,68.35
2018-11-20T02:41:25.907Z,68.73
2018-11-20T02:42:25.927Z,68.35
2018-11-20T02:43:25.931Z,68.64
2018-11-20T02:44:25.958Z,68.54
2018-11-20T02:45:26.237Z,68.73
2018-11-20T02:46:26.255Z,68.26
2018-11-20T02:47:26.003Z,68.23
2018-11-20T02:48:27.149Z,68.23
2018-11-20T02:49:26.299Z,68.6
2018-11-20T02:50:26.060Z,68.6
2018-11-20T02:51:26.137Z,68.64
2018-11-20T02:52:26.350Z,68.44
2018-11-20T02:53:26.367Z,68.7
2018-11-20T02:54:26.387Z,68.32
2018-11-20T02:55:26.141Z,68.51
2018-11-20T02:56:26.158Z,68.6
2018-11-20T02:57:26.177Z,68.6
2018-11-20T02:58:26.189Z,68.6
2018-11-20T02:59:26.215Z,68.7
2018-11-20T03:00:26.488Z,68.7
2018-11-20T03:01:26.249Z,68.13
2018-11-20T03:02:26.267Z,68.04
2018-11-20T03:03:26.288Z,67.94
2018-11-20T03:04:26.288Z,68.41
2018-11-20T03:05:26.322Z,67.75
2018-11-20T03:06:26.593Z,68.41
2018-11-20T03:07:26.345Z,68.7
2018-11-20T03:08:26.626Z,68.32
2018-11-20T03:09:26.645Z,68.23
2018-11-20T03:10:26.674Z,68.6
2018-11-20T03:11:26.425Z,68.79
2018-11-20T03:12:26.438Z,67.94
2018-11-20T03:13:26.720Z,68.32
2018-11-20T03:14:26.461Z,68.6
2018-11-20T03:15:26.743Z,68.23
2018-11-20T03:16:26.495Z,67.94
2018-11-20T03:17:26.776Z,68.7
2018-11-20T03:18:26.530Z,68.51
2018-11-20T03:19:26.553Z,68.04
2018-11-20T03:20:26.828Z,68.13
2018-11-20T03:21:26.585Z,68.51
2018-11-20T03:22:26.606Z,68.7
2018-11-20T03:23:26.891Z,68.89
2018-11-20T03:24:26.634Z,68.07
2018-11-20T03:25:26.650Z,68.7
2018-11-20T03:26:26.673Z,68.23
2018-11-20T03:27:26.961Z,68.79
2018-11-20T03:28:26.702Z,68.04
2018-11-20T03:29:26.989Z,68.41
2018-11-20T03:30:27.000Z,68.6
2018-11-20T03:31:26.751Z,68.44
2018-11-20T03:32:26.772Z,68.26
2018-11-20T03:33:27.050Z,68.51
2018-11-20T03:34:27.075Z,68.64
2018-11-20T03:35:26.829Z,68.54
2018-11-20T03:36:26.834Z,68.26
2018-11-20T03:37:27.119Z,68.83
2018-11-20T03:38:27.137Z,68.32
2018-11-20T03:39:27.153Z,68.16
2018-11-20T03:40:26.908Z,68.41
2018-11-20T03:41:26.925Z,68.16
2018-11-20T03:42:27.211Z,67.97
2018-11-20T03:43:27.218Z,68.35
2018-11-20T03:44:26.973Z,68.35
2018-11-20T03:45:26.991Z,68.73
2018-11-20T03:46:27.274Z,68.26
2018-11-20T03:47:27.029Z,68.26
2018-11-20T03:48:27.309Z,68.83
2018-11-20T03:49:27.334Z,68.73
2018-11-20T03:50:27.083Z,68.6
2018-11-20T03:51:27.097Z,68.23
2018-11-20T03:52:27.383Z,68.6
2018-11-20T03:53:27.126Z,68.7
2018-11-20T03:54:27.141Z,68.32
2018-11-20T03:55:27.161Z,68.23
2018-11-20T03:56:27.188Z,68.6
2018-11-20T03:57:27.204Z,68.64
2018-11-20T03:58:27.213Z,68.79
2018-11-20T03:59:27.231Z,68.13
2018-11-20T04:00:27.244Z,68.07
2018-11-20T04:01:27.273Z,68.6
2018-11-20T04:02:27.279Z,68.6
2018-11-20T04:03:27.297Z,68.26
2018-11-20T04:04:27.319Z,68.35
2018-11-20T04:05:27.344Z,68.54
2018-11-20T04:06:27.617Z,68.44
2018-11-20T04:07:27.378Z,68.35
2018-11-20T04:08:27.650Z,68.35
2018-11-20T04:09:27.406Z,68.16
2018-11-20T04:10:27.419Z,68.64
2018-11-20T04:11:27.433Z,68.83
2018-11-20T04:12:27.455Z,68.26
2018-11-20T04:13:27.731Z,68.26
2018-11-20T04:14:27.763Z,68.54
2018-11-20T04:15:27.509Z,68.73
2018-11-20T04:16:27.527Z,68.64
2018-11-20T04:17:27.803Z,68.23
2018-11-20T04:18:27.554Z,68.6
2018-11-20T04:19:27.571Z,68.41
2018-11-20T04:20:27.858Z,68.13
2018-11-20T04:21:27.873Z,68.7
2018-11-20T04:22:27.623Z,68.44
2018-11-20T04:23:27.906Z,68.54
2018-11-20T04:24:27.934Z,68.44
2018-11-20T04:25:27.678Z,68.07
2018-11-20T04:26:27.689Z,68.16
2018-11-20T04:27:27.974Z,68.44
2018-11-20T04:28:27.734Z,67.94
2018-11-20T04:29:28.018Z,68.04
2018-11-20T04:30:28.024Z,68.13
2018-11-20T04:31:28.044Z,68.32
2018-11-20T04:32:28.068Z,68.51
2018-11-20T04:33:27.816Z,68.44
2018-11-20T04:34:27.828Z,68.26
2018-11-20T04:35:28.116Z,68.51
2018-11-20T04:36:27.864Z,68.44
2018-11-20T04:37:27.883Z,68.23
2018-11-20T04:38:27.903Z,68.51
2018-11-20T04:39:28.182Z,68.32
2018-11-20T04:40:27.928Z,68.51
2018-11-20T04:41:27.966Z,68.32
2018-11-20T04:42:27.962Z,68.26
2018-11-20T04:43:27.989Z,68.41
2018-11-20T04:44:28.279Z,68.79
2018-11-20T04:45:28.017Z,68.41
2018-11-20T04:46:28.300Z,68.73
2018-11-20T04:47:28.052Z,68.13
2018-11-20T04:48:28.344Z,68.32
2018-11-20T04:49:28.085Z,68.6
2018-11-20T04:50:28.365Z,68.23
2018-11-20T04:51:28.120Z,68.23
2018-11-20T04:52:28.137Z,68.79
2018-11-20T04:53:28.160Z,68.51
2018-11-20T04:54:28.439Z,68.79
2018-11-20T04:55:28.186Z,68.04
2018-11-20T04:56:28.212Z,68.79
2018-11-20T04:57:28.617Z,68.7
2018-11-20T04:58:28.515Z,68.35
2018-11-20T04:59:28.262Z,68.35
2018-11-20T05:00:28.281Z,68.73
2018-11-20T05:01:28.569Z,68.54
2018-11-20T05:02:28.313Z,68.26
2018-11-20T05:03:28.329Z,68.26
2018-11-20T05:04:28.607Z,68.35
2018-11-20T05:05:28.357Z,68.64
2018-11-20T05:06:28.698Z,68.26
2018-11-20T05:07:28.391Z,68.07
2018-11-20T05:08:28.676Z,68.44
2018-11-20T05:09:28.697Z,68.16
2018-11-20T05:10:28.449Z,68.04
2018-11-20T05:11:28.461Z,68.07
2018-11-20T05:12:28.477Z,68.16
2018-11-20T05:13:28.556Z,68.54
2018-11-20T05:14:28.783Z,68.07
2018-11-20T05:15:28.528Z,68.16
2018-11-20T05:16:28.809Z,68.35
2018-11-20T05:17:28.558Z,68.16
2018-11-20T05:18:28.577Z,68.35
2018-11-20T05:19:28.611Z,67.69
2018-11-20T05:20:28.609Z,68.26
2018-11-20T05:21:28.890Z,67.79
2018-11-20T05:22:28.650Z,68.04
2018-11-20T05:23:28.661Z,68.16
2018-11-20T05:24:28.943Z,68.16
2018-11-20T05:25:28.961Z,68.26
2018-11-20T05:26:28.720Z,68.26
2018-11-20T05:27:29.000Z,68.26
2018-11-20T05:28:28.746Z,68.26
2018-11-20T05:29:28.763Z,68.07
2018-11-20T05:30:29.048Z,68.16
2018-11-20T05:31:29.085Z,68.16
2018-11-20T05:32:28.814Z,68.26
2018-11-20T05:33:28.833Z,68.26
2018-11-20T05:34:28.856Z,68.44
2018-11-20T05:35:29.133Z,68.16
2018-11-20T05:36:29.167Z,68.16
2018-11-20T05:37:28.906Z,68.16
2018-11-20T05:38:29.194Z,68.35
2018-11-20T05:39:28.947Z,68.35
2018-11-20T05:40:29.450Z,68.26
2018-11-20T05:41:28.975Z,68.16
2018-11-20T05:42:28.988Z,68.26
2018-11-20T05:43:29.269Z,68.54
2018-11-20T05:44:29.021Z,68.35
2018-11-20T05:45:29.039Z,68.26
2018-11-20T05:46:29.059Z,68.35
2018-11-20T05:47:29.337Z,68.35
2018-11-20T05:48:29.369Z,68.35
2018-11-20T05:49:29.111Z,68.23
2018-11-20T05:50:29.405Z,68.44
2018-11-20T05:51:29.144Z,68.35
2018-11-20T05:52:29.429Z,68.44
2018-11-20T05:53:29.173Z,68.54
2018-11-20T05:54:29.474Z,68.44
2018-11-20T05:55:29.477Z,68.44
2018-11-20T05:56:29.496Z,68.64
2018-11-20T05:57:29.251Z,68.64
2018-11-20T05:58:29.259Z,68.44
2018-11-20T05:59:29.298Z,68.44
2018-11-20T06:00:29.573Z,68.35
2018-11-20T06:01:29.320Z,68.73
2018-11-20T06:02:29.605Z,68.54
2018-11-20T06:03:29.614Z,68.54
2018-11-20T06:04:29.367Z,68.44
2018-11-20T06:05:29.642Z,68.64
2018-11-20T06:06:29.685Z,68.64
2018-11-20T06:07:29.691Z,68.26
2018-11-20T06:08:29.717Z,68.44
2018-11-20T06:09:29.455Z,68.64
2018-11-20T06:10:29.742Z,68.73
2018-11-20T06:11:29.503Z,68.44
2018-11-20T06:12:29.526Z,68.83
2018-11-20T06:13:29.783Z,68.41
2018-11-20T06:14:29.800Z,68.73
2018-11-20T06:15:29.551Z,68.64
2018-11-20T06:16:29.834Z,68.64
2018-11-20T06:17:29.853Z,68.44
2018-11-20T06:18:29.601Z,68.26
2018-11-20T06:19:29.620Z,68.35
2018-11-20T06:20:29.644Z,68.64
2018-11-20T06:21:29.652Z,68.64
2018-11-20T06:22:29.674Z,68.64
2018-11-20T06:23:29.687Z,68.73
2018-11-20T06:24:29.714Z,68.64
2018-11-20T06:25:30.002Z,68.26
2018-11-20T06:26:30.023Z,68.54
2018-11-20T06:27:29.755Z,68.44
2018-11-20T06:28:30.109Z,68.83
2018-11-20T06:29:30.057Z,68.35
2018-11-20T06:30:30.076Z,68.54
2018-11-20T06:31:29.824Z,68.35
2018-11-20T06:32:30.120Z,68.44
2018-11-20T06:33:29.868Z,68.26
2018-11-20T06:34:30.358Z,68.83
2018-11-20T06:35:29.898Z,68.44
2018-11-20T06:36:29.911Z,68.73
2018-11-20T06:37:29.940Z,68.44
2018-11-20T06:38:30.210Z,68.73
2018-11-20T06:39:29.962Z,68.44
2018-11-20T06:40:29.978Z,68.64
2018-11-20T06:41:30.345Z,68.35
2018-11-20T06:42:30.281Z,68.54
2018-11-20T06:43:30.034Z,68.54
2018-11-20T06:44:30.335Z,68.16
2018-11-20T06:45:30.335Z,68.64
2018-11-20T06:46:30.088Z,68.35
2018-11-20T06:47:30.099Z,68.73
2018-11-20T06:48:30.119Z,68.44
2018-11-20T06:49:30.134Z,68.54
2018-11-20T06:50:30.431Z,68.26
2018-11-20T06:51:30.438Z,68.26
2018-11-20T06:52:30.185Z,68.73
2018-11-20T06:53:30.300Z,68.64
2018-11-20T06:54:30.483Z,68.73
2018-11-20T06:55:30.506Z,68.44
2018-11-20T06:56:30.255Z,68.54
2018-11-20T06:57:30.312Z,68.54
2018-11-20T06:58:30.286Z,68.26
2018-11-20T06:59:30.572Z,68.54
2018-11-20T07:00:30.597Z,68.73
2018-11-20T07:01:30.445Z,68.83
2018-11-20T07:02:30.643Z,68.73
2018-11-20T07:03:30.382Z,68.16
2018-11-20T07:04:30.665Z,68.83
2018-11-20T07:05:30.680Z,68.26
2018-11-20T07:06:30.422Z,68.26
2018-11-20T07:07:31.276Z,68.26
2018-11-20T07:08:30.546Z,67.88
2018-11-20T07:09:30.746Z,68.07
2018-11-20T07:10:30.768Z,68.26
2018-11-20T07:11:30.515Z,68.26
2018-11-20T07:12:30.527Z,68.73
2018-11-20T07:13:30.812Z,68.16
2018-11-20T07:14:30.827Z,68.26
2018-11-20T07:15:30.878Z,68.83
2018-11-20T07:16:31.190Z,68.26
2018-11-20T07:17:30.875Z,68.44
2018-11-20T07:18:30.627Z,68.26
2018-11-20T07:19:30.660Z,68.64
2018-11-20T07:20:30.928Z,68.16
2018-11-20T07:21:30.961Z,68.07
2018-11-20T07:22:30.771Z,68.73
2018-11-20T07:23:30.720Z,68.26
2018-11-20T07:24:31.002Z,68.83
2018-11-20T07:25:31.015Z,68.16
2018-11-20T07:26:30.773Z,67.97
2018-11-20T07:27:31.050Z,68.79
2018-11-20T07:28:31.071Z,68.07
2018-11-20T07:29:31.281Z,68.64
2018-11-20T07:30:31.277Z,68.07
2018-11-20T07:31:31.223Z,68.83
2018-11-20T07:32:31.135Z,68.54
2018-11-20T07:33:30.892Z,69.11
2018-11-20T07:34:31.173Z,69.02
2018-11-20T07:35:30.953Z,68.44
2018-11-20T07:36:31.455Z,68.26
2018-11-20T07:37:31.023Z,68.44
2018-11-20T07:38:31.428Z,68.83
2018-11-20T07:39:30.989Z,68.64
2018-11-20T07:40:31.006Z,67.88
2018-11-20T07:41:31.299Z,68.83
2018-11-20T07:42:31.310Z,68.16
2018-11-20T07:43:31.079Z,68.44
2018-11-20T07:44:31.342Z,68.92
2018-11-20T07:45:31.638Z,68.35
2018-11-20T07:46:31.377Z,68.73
2018-11-20T07:47:31.392Z,68.73
2018-11-20T07:48:31.422Z,69.02
2018-11-20T07:49:31.167Z,68.44
2018-11-20T07:50:31.442Z,69.11
2018-11-20T07:51:31.272Z,68.92
2018-11-20T07:52:31.476Z,69.02
2018-11-20T07:53:31.506Z,68.83
2018-11-20T07:54:31.514Z,69.02
2018-11-20T07:55:31.819Z,68.83
2018-11-20T07:56:31.279Z,68.83
2018-11-20T07:57:31.305Z,68.7
2018-11-20T07:58:31.583Z,68.83
2018-11-20T07:59:31.328Z,68.83
2018-11-20T08:00:31.621Z,68.73
2018-11-20T08:01:31.625Z,68.64
2018-11-20T08:02:31.657Z,68.73
2018-11-20T08:03:31.672Z,68.73
2018-11-20T08:04:31.411Z,68.64
2018-11-20T08:05:31.701Z,68.73
2018-11-20T08:06:31.725Z,68.83
2018-11-20T08:07:31.472Z,68.73
2018-11-20T08:08:32.018Z,68.6
2018-11-20T08:09:31.509Z,69.02
2018-11-20T08:10:31.512Z,68.83
2018-11-20T08:11:31.799Z,68.79
2018-11-20T08:12:31.548Z,68.73
2018-11-20T08:13:31.572Z,68.92
2018-11-20T08:14:31.586Z,68.83
2018-11-20T08:15:31.775Z,68.73
2018-11-20T08:16:31.625Z,68.73
2018-11-20T08:17:31.632Z,68.64
2018-11-20T08:18:31.917Z,68.83
2018-11-20T08:19:31.935Z,68.64
2018-11-20T08:20:31.692Z,68.83
2018-11-20T08:21:31.968Z,68.92
2018-11-20T08:22:31.717Z,68.73
2018-11-20T08:23:32.015Z,68.83
2018-11-20T08:24:32.027Z,68.64
2018-11-20T08:25:31.905Z,68.73
2018-11-20T08:26:32.589Z,68.92
2018-11-20T08:27:31.807Z,68.92
2018-11-20T08:28:32.086Z,68.83
2018-11-20T08:29:32.100Z,68.73
2018-11-20T08:30:31.853Z,68.73
2018-11-20T08:31:31.873Z,68.89
2018-11-20T08:32:32.166Z,68.92
2018-11-20T08:33:31.947Z,69.11
2018-11-20T08:34:32.188Z,68.92
2018-11-20T08:35:31.942Z,69.11
2018-11-20T08:36:32.225Z,68.83
2018-11-20T08:37:32.253Z,68.92
2018-11-20T08:38:31.990Z,68.92
2018-11-20T08:39:32.009Z,68.54
2018-11-20T08:40:32.031Z,68.54
2018-11-20T08:41:32.051Z,68.35
2018-11-20T08:42:32.326Z,68.26
2018-11-20T08:43:32.351Z,68.44
2018-11-20T08:44:32.367Z,69.21
2018-11-20T08:45:32.109Z,68.44
2018-11-20T08:46:32.132Z,68.07
2018-11-20T08:47:32.454Z,67.97
2018-11-20T08:48:32.282Z,68.35
2018-11-20T08:49:32.443Z,68.26
2018-11-20T08:50:32.191Z,68.35
2018-11-20T08:51:32.211Z,68.26
2018-11-20T08:52:32.234Z,68.54
2018-11-20T08:53:32.298Z,69.02
2018-11-20T08:54:32.525Z,69.02
2018-11-20T08:55:32.542Z,68.54
2018-11-20T08:56:32.302Z,68.44
2018-11-20T08:57:32.315Z,68.44
2018-11-20T08:58:32.332Z,69.11
2018-11-20T08:59:32.345Z,68.54
2018-11-20T09:00:32.630Z,68.92
2018-11-20T09:01:32.378Z,68.64
2018-11-20T09:02:32.519Z,68.26
2018-11-20T09:03:32.691Z,68.16
2018-11-20T09:04:32.430Z,67.97
2018-11-20T09:05:32.456Z,68.35
2018-11-20T09:06:32.466Z,68.07
2018-11-20T09:07:32.485Z,68.73
2018-11-20T09:08:32.500Z,68.35
2018-11-20T09:09:32.793Z,68.16
2018-11-20T09:10:33.022Z,68.26
2018-11-20T09:11:32.547Z,68.73
2018-11-20T09:12:32.571Z,68.44
2018-11-20T09:13:32.850Z,68.73
2018-11-20T09:14:32.600Z,68.44
2018-11-20T09:15:32.623Z,68.16
2018-11-20T09:16:32.907Z,68.35
2018-11-20T09:17:32.652Z,68.07
2018-11-20T09:18:32.673Z,68.64
2018-11-20T09:19:32.696Z,68.35
2018-11-20T09:20:32.713Z,68.64
2018-11-20T09:21:32.722Z,68.64
2018-11-20T09:22:33.002Z,68.35
2018-11-20T09:23:33.044Z,68.16
2018-11-20T09:24:32.770Z,68.35
2018-11-20T09:25:32.813Z,68.26
2018-11-20T09:26:33.071Z,68.64
2018-11-20T09:27:32.826Z,68.44
2018-11-20T09:28:32.839Z,68.44
2018-11-20T09:29:33.124Z,68.64
2018-11-20T09:30:32.875Z,68.35
2018-11-20T09:31:33.161Z,68.26
2018-11-20T09:32:32.916Z,68.35
2018-11-20T09:33:33.192Z,68.44
2018-11-20T09:34:33.039Z,68.16
2018-11-20T09:35:33.979Z,68.26
2018-11-20T09:36:32.980Z,68.54
2018-11-20T09:37:33.272Z,68.26
2018-11-20T09:38:33.275Z,68.44
2018-11-20T09:39:33.303Z,68.16
2018-11-20T09:40:33.044Z,68.26
2018-11-20T09:41:33.061Z,68.35
2018-11-20T09:42:33.350Z,68.07
2018-11-20T09:43:33.362Z,68.07
2018-11-20T09:44:33.115Z,68.26
2018-11-20T09:45:33.135Z,68.16
2018-11-20T09:46:33.194Z,68.07
2018-11-20T09:47:33.435Z,68.26
2018-11-20T09:48:33.180Z,68.26
2018-11-20T09:49:33.197Z,68.35
2018-11-20T09:50:33.223Z,68.73
2018-11-20T09:51:33.505Z,68.26
2018-11-20T09:52:33.328Z,68.54
2018-11-20T09:53:33.275Z,68.73
2018-11-20T09:54:33.561Z,68.64
2018-11-20T09:55:33.298Z,68.35
2018-11-20T09:56:33.595Z,68.26
2018-11-20T09:57:33.334Z,68.16
2018-11-20T09:58:33.621Z,68.26
2018-11-20T09:59:33.679Z,68.35
2018-11-20T10:00:33.385Z,68.44
2018-11-20T10:01:33.680Z,68.26
2018-11-20T10:02:33.423Z,68.16
2018-11-20T10:03:33.485Z,68.44
2018-11-20T10:04:33.734Z,67.97
2018-11-20T10:05:33.472Z,68.54
2018-11-20T10:06:33.489Z,67.97
2018-11-20T10:07:33.773Z,68.16
2018-11-20T10:08:33.794Z,68.26
2018-11-20T10:09:33.806Z,68.44
2018-11-20T10:10:33.555Z,68.44
2018-11-20T10:11:33.575Z,68.35
2018-11-20T10:12:33.857Z,68.44
2018-11-20T10:13:33.609Z,67.79
2018-11-20T10:14:33.693Z,67.88
2018-11-20T10:15:33.649Z,68.07
2018-11-20T10:16:33.667Z,67.69
2018-11-20T10:17:33.681Z,67.88
2018-11-20T10:18:33.695Z,68.07
2018-11-20T10:19:33.987Z,68.07
2018-11-20T10:20:33.993Z,68.16
2018-11-20T10:21:34.277Z,68.16
2018-11-20T10:22:34.044Z,67.69
2018-11-20T10:23:33.797Z,67.69
2018-11-20T10:24:34.096Z,67.59
2018-11-20T10:25:33.910Z,67.31
2018-11-20T10:26:33.833Z,67.31
2018-11-20T10:27:33.845Z,67.4
2018-11-20T10:28:34.129Z,67.59
2018-11-20T10:29:34.148Z,67.59
2018-11-20T10:30:33.902Z,67.59
2018-11-20T10:31:33.925Z,67.4
2018-11-20T10:32:33.974Z,67.21
2018-11-20T10:33:34.219Z,67.69
2018-11-20T10:34:34.370Z,68.07
2018-11-20T10:35:34.322Z,67.88
2018-11-20T10:36:34.004Z,67.88
2018-11-20T10:37:34.029Z,67.88
2018-11-20T10:38:34.039Z,67.59
2018-11-20T10:39:34.326Z,67.12
2018-11-20T10:40:34.597Z,67.4
2018-11-20T10:41:34.096Z,67.59
2018-11-20T10:42:34.107Z,67.4
2018-11-20T10:43:34.396Z,67.4
2018-11-20T10:44:34.407Z,68.07
2018-11-20T10:45:34.378Z,68.07
2018-11-20T10:46:34.648Z,67.79
2018-11-20T10:47:34.191Z,67.79
2018-11-20T10:48:34.210Z,67.79
2018-11-20T10:49:34.237Z,68.26
2018-11-20T10:50:34.518Z,67.79
2018-11-20T10:51:34.534Z,68.35
2018-11-20T10:52:34.383Z,68.16
2018-11-20T10:53:34.299Z,68.26
2018-11-20T10:54:34.313Z,68.07
2018-11-20T10:55:34.329Z,68.26
2018-11-20T10:56:34.624Z,68.07
2018-11-20T10:57:34.361Z,68.35
2018-11-20T10:58:34.661Z,68.35
2018-11-20T10:59:34.505Z,68.26
2018-11-20T11:00:34.685Z,68.26
2018-11-20T11:01:34.434Z,68.26
2018-11-20T11:02:34.723Z,68.35
2018-11-20T11:03:34.737Z,68.07
2018-11-20T11:04:34.886Z,68.26
2018-11-20T11:05:34.782Z,68.35
2018-11-20T11:06:34.656Z,68.35
2018-11-20T11:07:34.703Z,68.16
2018-11-20T11:08:34.552Z,68.16
2018-11-20T11:09:34.572Z,67.97
2018-11-20T11:10:34.876Z,67.97
2018-11-20T11:11:35.008Z,67.88
2018-11-20T11:12:34.671Z,68.16
2018-11-20T11:13:34.639Z,67.69
2018-11-20T11:14:35.125Z,67.97
2018-11-20T11:15:34.973Z,67.97
2018-11-20T11:16:34.959Z,67.69
2018-11-20T11:17:34.706Z,67.97
2018-11-20T11:18:34.786Z,67.88
2018-11-20T11:19:34.740Z,67.79
2018-11-20T11:20:35.423Z,67.69
2018-11-20T11:21:35.048Z,68.07
2018-11-20T11:22:35.059Z,67.88
2018-11-20T11:23:34.810Z,68.35
2018-11-20T11:24:34.836Z,68.16
2018-11-20T11:25:34.848Z,68.26
2018-11-20T11:26:35.130Z,67.59
2018-11-20T11:27:34.878Z,68.07
2018-11-20T11:28:34.901Z,68.16
2018-11-20T11:29:35.196Z,67.21
2018-11-20T11:30:35.206Z,67.79
2018-11-20T11:31:34.950Z,67.88
2018-11-20T11:32:34.975Z,68.07
2018-11-20T11:33:34.981Z,68.26
2018-11-20T11:34:35.265Z,68.26
2018-11-20T11:35:35.284Z,68.07
2018-11-20T11:36:35.033Z,67.97
2018-11-20T11:37:35.053Z,68.07
2018-11-20T11:38:35.333Z,68.07
2018-11-20T11:39:35.365Z,68.26
2018-11-20T11:40:35.384Z,68.16
2018-11-20T11:41:35.118Z,67.59
2018-11-20T11:42:35.522Z,68.16
2018-11-20T11:43:35.431Z,67.79
2018-11-20T11:44:35.168Z,68.16
2018-11-20T11:45:35.193Z,67.59
2018-11-20T11:46:35.205Z,67.31
2018-11-20T11:47:35.487Z,67.4
2018-11-20T11:48:35.239Z,67.4
2018-11-20T11:49:35.262Z,67.31
2018-11-20T11:50:35.274Z,67.31
2018-11-20T11:51:35.299Z,67.4
2018-11-20T11:52:35.571Z,67.4
2018-11-20T11:53:35.323Z,67.31
2018-11-20T11:54:35.350Z,67.31
2018-11-20T11:55:35.366Z,67.4
2018-11-20T11:56:35.645Z,67.31
2018-11-20T11:57:35.675Z,67.31
2018-11-20T11:58:35.411Z,67.31
2018-11-20T11:59:35.426Z,67.4
2018-11-20T12:00:35.710Z,67.31
2018-11-20T12:03:35.495Z,67.5
2018-11-20T12:04:35.525Z,67.4
2018-11-20T12:05:35.797Z,67.31
2018-11-20T12:06:35.549Z,67.31
2018-11-20T12:07:36.386Z,67.21
2018-11-20T12:08:35.845Z,67.12
2018-11-20T12:09:35.865Z,67.4
2018-11-20T12:10:38.899Z,67.4
2018-11-20T12:11:35.903Z,67.31
2018-11-20T12:12:35.652Z,67.12
2018-11-20T12:13:35.683Z,67.63
2018-11-20T12:14:35.691Z,67.25
2018-11-20T12:15:35.972Z,67.4
2018-11-20T12:16:35.991Z,67.25
2018-11-20T12:17:35.738Z,67.4
2018-11-20T12:18:35.756Z,67.44
2018-11-20T12:19:35.778Z,67.44
2018-11-20T12:20:35.800Z,66.83
2018-11-20T12:21:36.070Z,67.21
2018-11-20T12:22:36.086Z,67.25
2018-11-20T12:23:36.111Z,66.87
2018-11-20T12:24:35.868Z,66.96
2018-11-20T12:25:35.877Z,67.06
2018-11-20T12:26:35.890Z,67.4
2018-11-20T12:27:35.907Z,67.44
2018-11-20T12:28:37.213Z,67.31
2018-11-20T12:29:39.020Z,67.31
2018-11-20T12:30:37.350Z,66.83
2018-11-20T12:31:36.258Z,67.21
2018-11-20T12:32:35.993Z,67.25
2018-11-20T12:33:36.012Z,67.34
2018-11-20T12:34:39.841Z,67.44
2018-11-20T12:35:38.449Z,67.72
2018-11-20T12:36:36.331Z,67.44
2018-11-20T12:37:36.079Z,67.34
2018-11-20T12:38:36.365Z,67.34
2018-11-20T12:39:38.361Z,67.25
2018-11-20T12:40:36.137Z,67.4
2018-11-20T12:41:36.152Z,67.4
2018-11-20T12:42:36.448Z,67.34
2018-11-20T12:43:37.986Z,67.31
2018-11-20T12:44:36.620Z,67.21
2018-11-20T12:45:36.855Z,67.44
2018-11-20T12:46:36.244Z,67.63
2018-11-20T12:47:36.518Z,67.79
2018-11-20T12:48:36.279Z,68.16
2018-11-20T12:49:36.301Z,68.1
2018-11-20T12:50:36.579Z,68.19
2018-11-20T12:51:36.596Z,68.26
2018-11-20T12:52:36.338Z,67.69
2018-11-20T12:53:38.297Z,67.79
2018-11-20T12:54:36.372Z,68.01
2018-11-20T12:55:38.090Z,67.88
2018-11-20T12:56:36.409Z,68.44